Time;durP1;ratioP1;P1;durP2;ratioP2;P2;SDS_P1;SDS_P2;PMS_P1;PMS_P2;Temp;Humidity;BMP_temperature;BMP_pressure;BME280_temperature;BME280_humidity;BME280_pressure;Samples;Min_cycle;Max_cycle;Signal;HPM_P1;HPM_P2
2023/11/15 00:01:23;;;;;;;4.68;1.45;;;;;;;;;;5050647;28;20253;-59
2023/11/15 00:03:49;;;;;;;8.20;0.90;;;;;;;;;;5055641;28;20127;-59
2023/11/15 00:06:16;;;;;;;8.32;2.30;;;;;;;;;;5057539;28;20041;-59
2023/11/15 00:08:42;;;;;;;11.23;1.55;;;;;;;;;;5055362;28;20529;-59
2023/11/15 00:11:08;;;;;;;9.82;1.95;;;;;;;;;;5056350;28;20037;-59
2023/11/15 00:13:34;;;;;;;10.13;1.80;;;;;;;;;;5063593;28;20143;-59
2023/11/15 00:16:01;;;;;;;6.28;2.20;;;;;;;;;;5044907;28;20217;-59
2023/11/15 00:18:27;;;;;;;9.00;1.80;;;;;;;;;;5055350;28;20102;-58
2023/11/15 00:20:53;;;;;;;7.53;1.55;;;;;;;;;;5043770;28;20041;-59
2023/11/15 00:23:20;;;;;;;9.07;1.50;;;;;;;;;;5040961;28;20600;-59
2023/11/15 00:25:46;;;;;;;6.47;1.27;;;;;;;;;;5041488;28;20049;-59
2023/11/15 00:28:13;;;;;;;8.57;1.17;;;;;;;;;;5039908;28;20564;-59
2023/11/15 00:30:39;;;;;;;11.25;1.77;;;;;;;;;;5042112;28;20048;-59
2023/11/15 00:33:07;;;;;;;4.30;1.23;;;;;;;;;;5054421;28;20041;-59
2023/11/15 00:35:33;;;;;;;10.50;1.30;;;;;;;;;;5053832;28;20076;-59
2023/11/15 00:37:59;;;;;;;5.25;1.23;;;;;;;;;;5057624;28;20040;-59
2023/11/15 00:40:28;;;;;;;12.65;1.80;;;;;;;;;;5065961;28;20033;-59
2023/11/15 00:42:54;;;;;;;13.30;1.77;;;;;;;;;;5051886;28;20071;-59
2023/11/15 00:45:23;;;;;;;4.97;1.55;;;;;;;;;;5059494;28;20040;-59
2023/11/15 00:47:50;;;;;;;9.23;2.20;;;;;;;;;;5048433;28;20122;-59
2023/11/15 00:50:16;;;;;;;9.40;2.08;;;;;;;;;;5052678;28;20062;-59
2023/11/15 00:52:42;;;;;;;9.57;1.83;;;;;;;;;;5052762;28;20481;-59
2023/11/15 00:55:08;;;;;;;5.20;1.55;;;;;;;;;;5057599;28;20045;-59
2023/11/15 00:57:35;;;;;;;9.43;1.90;;;;;;;;;;5053685;28;20044;-59
2023/11/15 01:00:01;;;;;;;5.53;1.88;;;;;;;;;;5045385;28;20464;-59
2023/11/15 01:02:29;;;;;;;6.97;1.63;;;;;;;;;;5052427;28;20056;-59
2023/11/15 01:04:55;;;;;;;9.52;1.80;;;;;;;;;;5054220;28;20129;-59
2023/11/15 01:07:21;;;;;;;6.20;1.50;;;;;;;;;;5048720;28;20041;-59
2023/11/15 01:09:48;;;;;;;7.75;1.80;;;;;;;;;;5065201;28;20503;-59
2023/11/15 01:12:14;;;;;;;12.25;2.50;;;;;;;;;;5053469;28;20114;-59
2023/11/15 01:14:41;;;;;;;13.63;2.58;;;;;;;;;;5050333;28;20124;-59
2023/11/15 01:17:07;;;;;;;10.65;1.98;;;;;;;;;;5061870;28;20040;-59
2023/11/15 01:19:33;;;;;;;10.75;2.47;;;;;;;;;;5047832;28;20083;-58
2023/11/15 01:22:00;;;;;;;9.32;2.08;;;;;;;;;;5047626;28;20041;-59
2023/11/15 01:24:26;;;;;;;12.75;2.38;;;;;;;;;;5048369;28;20068;-59
2023/11/15 01:26:52;;;;;;;7.90;2.13;;;;;;;;;;5048693;28;20037;-59
2023/11/15 01:29:19;;;;;;;12.77;2.78;;;;;;;;;;5047249;28;20541;-59
2023/11/15 01:31:45;;;;;;;4.70;1.90;;;;;;;;;;5046610;28;20044;-59
2023/11/15 01:34:13;;;;;;;9.18;2.42;;;;;;;;;;5048638;28;20045;-59
2023/11/15 01:36:39;;;;;;;13.45;2.10;;;;;;;;;;5047477;28;20041;-59
2023/11/15 01:39:06;;;;;;;14.52;2.35;;;;;;;;;;5052353;28;20396;-59
2023/11/15 01:41:32;;;;;;;14.85;2.70;;;;;;;;;;5062543;28;20039;-59
2023/11/15 01:43:58;;;;;;;11.23;2.00;;;;;;;;;;5055645;28;20071;-59
2023/11/15 01:46:24;;;;;;;12.23;2.25;;;;;;;;;;5048710;28;20036;-59
2023/11/15 01:48:51;;;;;;;10.52;1.85;;;;;;;;;;5048249;28;20128;-59
2023/11/15 01:51:17;;;;;;;9.73;1.80;;;;;;;;;;5045425;28;20044;-59
2023/11/15 01:53:44;;;;;;;9.48;1.95;;;;;;;;;;5043548;28;20560;-59
2023/11/15 01:56:10;;;;;;;6.40;1.50;;;;;;;;;;5048668;28;20409;-59
2023/11/15 01:58:37;;;;;;;8.65;2.10;;;;;;;;;;5048826;28;20099;-59
2023/11/15 02:01:05;;;;;;;9.23;1.77;;;;;;;;;;5028839;28;20053;-59
2023/11/15 02:03:31;;;;;;;7.50;2.00;;;;;;;;;;5046360;28;20041;-59
2023/11/15 02:05:58;;;;;;;6.88;2.00;;;;;;;;;;5048266;28;20423;-59
2023/11/15 02:08:24;;;;;;;9.18;2.42;;;;;;;;;;5045404;28;20346;-59
2023/11/15 02:10:50;;;;;;;8.32;3.58;;;;;;;;;;5047260;28;20397;-59
2023/11/15 02:13:25;;;;;;;10.95;3.20;;;;;;;;;;5045610;28;20075;-59
2023/11/15 02:15:52;;;;;;;12.00;3.47;;;;;;;;;;5024416;28;20076;-59
2023/11/15 02:18:22;;;;;;;7.45;3.38;;;;;;;;;;5044965;28;20136;-59
2023/11/15 02:20:48;;;;;;;9.73;2.63;;;;;;;;;;5042133;28;20382;-59
2023/11/15 02:23:14;;;;;;;9.43;2.90;;;;;;;;;;5047644;28;20049;-59
2023/11/15 02:25:40;;;;;;;8.30;2.58;;;;;;;;;;5044120;28;20141;-59
2023/11/15 02:28:08;;;;;;;10.98;2.70;;;;;;;;;;5039936;28;20127;-59
2023/11/15 02:30:34;;;;;;;6.68;2.47;;;;;;;;;;5039346;28;20122;-59
2023/11/15 02:33:00;;;;;;;10.20;3.28;;;;;;;;;;5039679;28;20048;-59
2023/11/15 02:35:27;;;;;;;8.40;2.15;;;;;;;;;;5037490;28;20041;-59
2023/11/15 02:37:53;;;;;;;10.13;2.30;;;;;;;;;;5039259;28;20116;-59
2023/11/15 02:40:19;;;;;;;6.43;1.35;;;;;;;;;;5043577;28;20047;-59
2023/11/15 02:42:46;;;;;;;6.97;1.27;;;;;;;;;;5040065;28;20103;-59
2023/11/15 02:45:12;;;;;;;3.40;1.00;;;;;;;;;;5055688;28;20045;-59
2023/11/15 02:47:38;;;;;;;7.35;1.45;;;;;;;;;;5052548;28;20041;-59
2023/11/15 02:50:05;;;;;;;5.72;1.20;;;;;;;;;;5050465;28;20045;-59
2023/11/15 02:52:32;;;;;;;8.32;1.33;;;;;;;;;;5049963;28;20119;-59
2023/11/15 02:54:59;;;;;;;5.38;1.00;;;;;;;;;;5052803;28;20453;-59
2023/11/15 02:57:25;;;;;;;6.55;1.20;;;;;;;;;;5054601;28;20377;-59
2023/11/15 02:59:51;;;;;;;6.05;1.23;;;;;;;;;;5049503;28;20037;-59
2023/11/15 03:02:17;;;;;;;6.30;1.30;;;;;;;;;;5052038;28;20043;-59
2023/11/15 03:04:43;;;;;;;8.55;1.85;;;;;;;;;;5049267;28;20164;-59
2023/11/15 03:07:09;;;;;;;6.93;1.58;;;;;;;;;;5055848;28;20446;-59
2023/11/15 03:09:36;;;;;;;4.10;1.60;;;;;;;;;;5064505;28;20520;-59
2023/11/15 03:12:03;;;;;;;7.28;2.03;;;;;;;;;;5049586;28;20040;-59
2023/11/15 03:14:30;;;;;;;6.85;2.10;;;;;;;;;;5060742;28;20158;-58
2023/11/15 03:16:56;;;;;;;8.95;2.47;;;;;;;;;;5049608;28;20061;-59
2023/11/15 03:19:23;;;;;;;4.70;1.70;;;;;;;;;;5054568;28;20059;-59
2023/11/15 03:21:49;;;;;;;5.43;1.75;;;;;;;;;;5048891;28;21874;-59
2023/11/15 03:24:15;;;;;;;5.22;2.45;;;;;;;;;;5051729;28;20120;-59
2023/11/15 03:26:41;;;;;;;4.80;1.85;;;;;;;;;;5052296;28;20041;-59
2023/11/15 03:29:07;;;;;;;5.20;1.95;;;;;;;;;;5049603;28;20143;-59
2023/11/15 03:31:34;;;;;;;4.47;1.63;;;;;;;;;;5050771;28;20043;-59
2023/11/15 03:34:00;;;;;;;7.85;2.30;;;;;;;;;;5050311;28;20055;-59
2023/11/15 03:36:27;;;;;;;6.30;1.92;;;;;;;;;;5056427;28;20037;-59
2023/11/15 03:38:53;;;;;;;6.10;2.25;;;;;;;;;;5053616;28;20048;-59
2023/11/15 03:41:19;;;;;;;8.07;3.60;;;;;;;;;;5050318;28;20419;-59
2023/11/15 03:43:46;;;;;;;6.13;1.20;;;;;;;;;;5049120;28;20045;-58
2023/11/15 03:46:12;;;;;;;4.22;1.75;;;;;;;;;;5051209;28;20088;-58
2023/11/15 03:48:38;;;;;;;8.52;1.95;;;;;;;;;;5048798;28;20045;-59
2023/11/15 03:51:04;;;;;;;4.28;1.80;;;;;;;;;;5044509;28;20056;-59
2023/11/15 03:53:31;;;;;;;9.73;2.13;;;;;;;;;;5046575;28;20068;-59
2023/11/15 03:55:57;;;;;;;7.03;1.98;;;;;;;;;;5051240;28;20485;-59
2023/11/15 03:58:23;;;;;;;8.60;1.92;;;;;;;;;;5049037;28;20045;-59
2023/11/15 04:00:49;;;;;;;9.10;1.85;;;;;;;;;;5048327;28;20044;-58
2023/11/15 04:03:16;;;;;;;5.38;2.05;;;;;;;;;;5049464;28;20086;-59
2023/11/15 04:05:42;;;;;;;7.85;1.88;;;;;;;;;;5051484;28;20440;-59
2023/11/15 04:08:10;;;;;;;4.13;2.00;;;;;;;;;;5050622;28;20052;-59
2023/11/15 04:10:37;;;;;;;5.57;2.30;;;;;;;;;;5046242;28;20081;-59
2023/11/15 04:13:03;;;;;;;12.00;2.42;;;;;;;;;;5048556;28;20057;-59
2023/11/15 04:15:29;;;;;;;4.90;2.50;;;;;;;;;;5048163;28;20374;-59
2023/11/15 04:17:56;;;;;;;15.88;3.03;;;;;;;;;;5051126;28;20040;-59
2023/11/15 04:20:22;;;;;;;8.13;2.70;;;;;;;;;;5050146;28;20146;-59
2023/11/15 04:22:48;;;;;;;6.28;2.58;;;;;;;;;;5049872;28;20045;-59
2023/11/15 04:25:14;;;;;;;7.85;2.88;;;;;;;;;;5052187;28;20447;-59
2023/11/15 04:27:40;;;;;;;9.45;2.67;;;;;;;;;;5049396;28;20396;-59
2023/11/15 04:30:09;;;;;;;8.57;2.88;;;;;;;;;;5049499;28;20068;-59
2023/11/15 04:32:36;;;;;;;7.30;2.50;;;;;;;;;;5051413;28;20075;-59
2023/11/15 04:35:02;;;;;;;8.50;2.65;;;;;;;;;;5050632;28;20045;-59
2023/11/15 04:37:29;;;;;;;7.38;2.75;;;;;;;;;;5048569;28;20045;-58
2023/11/15 04:39:56;;;;;;;8.18;2.50;;;;;;;;;;5041662;28;20059;-59
2023/11/15 04:42:24;;;;;;;5.57;2.67;;;;;;;;;;5040531;28;20044;-59
2023/11/15 04:44:50;;;;;;;8.00;2.65;;;;;;;;;;5045450;28;20497;-59
2023/11/15 04:47:17;;;;;;;5.18;2.72;;;;;;;;;;5046567;28;20045;-59
2023/11/15 04:49:45;;;;;;;6.68;2.70;;;;;;;;;;5040215;28;20045;-59
2023/11/15 04:52:11;;;;;;;12.98;4.00;;;;;;;;;;5042198;28;20045;-59
2023/11/15 04:54:37;;;;;;;8.63;3.38;;;;;;;;;;5044360;28;20433;-59
2023/11/15 04:57:04;;;;;;;5.88;3.05;;;;;;;;;;5049782;28;20061;-59
2023/11/15 04:59:31;;;;;;;7.07;4.10;;;;;;;;;;5050624;28;20033;-59
2023/11/15 05:01:58;;;;;;;11.30;3.85;;;;;;;;;;5049360;28;20093;-59
2023/11/15 05:04:25;;;;;;;10.52;3.40;;;;;;;;;;5048230;28;20492;-59
2023/11/15 05:06:54;;;;;;;8.13;3.20;;;;;;;;;;5051207;28;20519;-59
2023/11/15 05:09:21;;;;;;;14.02;4.00;;;;;;;;;;5049866;28;20530;-59
2023/11/15 05:11:47;;;;;;;15.38;5.15;;;;;;;;;;5050621;28;20053;-59
2023/11/15 05:14:13;;;;;;;10.18;3.53;;;;;;;;;;5051356;28;20045;-59
2023/11/15 05:16:39;;;;;;;7.57;3.88;;;;;;;;;;5049240;28;20041;-59
2023/11/15 05:19:06;;;;;;;7.20;3.70;;;;;;;;;;5049526;28;20055;-59
2023/11/15 05:21:32;;;;;;;9.00;4.60;;;;;;;;;;5049585;28;20057;-59
2023/11/15 05:23:59;;;;;;;7.00;3.47;;;;;;;;;;5050376;28;20512;-59
2023/11/15 05:26:25;;;;;;;10.50;4.28;;;;;;;;;;5049961;28;20036;-59
2023/11/15 05:28:51;;;;;;;9.07;3.92;;;;;;;;;;5048846;28;20049;-59
2023/11/15 05:31:18;;;;;;;8.80;4.63;;;;;;;;;;5050090;28;20317;-59
2023/11/15 05:33:44;;;;;;;6.78;4.57;;;;;;;;;;5049240;28;20346;-59
2023/11/15 05:36:10;;;;;;;13.25;4.95;;;;;;;;;;5050599;28;20060;-59
2023/11/15 05:38:36;;;;;;;11.75;4.80;;;;;;;;;;5049359;28;20090;-59
2023/11/15 05:41:05;;;;;;;9.50;4.70;;;;;;;;;;5047540;28;20052;-59
2023/11/15 05:43:31;;;;;;;10.75;5.10;;;;;;;;;;5049466;28;20045;-59
2023/11/15 05:45:58;;;;;;;10.07;4.68;;;;;;;;;;5047130;28;20037;-59
2023/11/15 05:48:24;;;;;;;9.57;4.75;;;;;;;;;;5048705;28;20041;-59
2023/11/15 05:50:50;;;;;;;13.18;4.50;;;;;;;;;;5049583;28;20033;-58
2023/11/15 05:53:16;;;;;;;6.35;4.10;;;;;;;;;;5045493;28;20096;-59
2023/11/15 05:55:43;;;;;;;9.18;4.20;;;;;;;;;;5043396;28;20112;-59
2023/11/15 05:58:12;;;;;;;7.75;4.60;;;;;;;;;;5042814;28;20396;-59
2023/11/15 06:00:38;;;;;;;9.73;5.13;;;;;;;;;;5047625;28;20600;-59
2023/11/15 06:03:04;;;;;;;10.25;5.03;;;;;;;;;;5047245;28;20045;-59
2023/11/15 06:05:30;;;;;;;6.32;4.63;;;;;;;;;;5049419;28;20041;-58
2023/11/15 06:07:57;;;;;;;8.15;4.32;;;;;;;;;;5045107;28;20411;-59
2023/11/15 06:10:26;;;;;;;10.35;4.90;;;;;;;;;;5048041;28;20033;-60
2023/11/15 06:12:56;;;;;;;6.03;4.43;;;;;;;;;;5048740;28;20052;-58
2023/11/15 06:15:23;;;;;;;7.20;4.22;;;;;;;;;;5050402;28;20059;-59
2023/11/15 06:17:52;;;;;;;10.18;4.43;;;;;;;;;;5050167;28;20487;-59
2023/11/15 06:20:19;;;;;;;7.95;4.40;;;;;;;;;;5049052;28;20053;-58
2023/11/15 06:22:46;;;;;;;7.03;4.70;;;;;;;;;;5047169;28;20118;-58
2023/11/15 06:25:18;;;;;;;10.15;4.57;;;;;;;;;;5044425;28;20049;-58
2023/11/15 06:27:45;;;;;;;8.02;4.68;;;;;;;;;;5042415;28;20055;-58
2023/11/15 06:30:13;;;;;;;9.20;4.82;;;;;;;;;;5048884;28;20065;-58
2023/11/15 06:32:39;;;;;;;9.45;5.60;;;;;;;;;;5048194;28;20514;-58
2023/11/15 06:35:06;;;;;;;6.45;4.80;;;;;;;;;;5044995;28;20384;-59
2023/11/15 06:37:34;;;;;;;8.13;5.68;;;;;;;;;;5049803;28;20491;-59
2023/11/15 06:40:07;;;;;;;8.20;5.05;;;;;;;;;;5052085;28;20357;-59
2023/11/15 06:42:34;;;;;;;6.85;4.72;;;;;;;;;;5052399;28;20053;-59
2023/11/15 06:45:02;;;;;;;8.20;5.18;;;;;;;;;;5051770;28;20884;-59
2023/11/15 06:47:28;;;;;;;11.15;5.95;;;;;;;;;;5053965;28;20150;-59
2023/11/15 06:49:55;;;;;;;9.68;5.47;;;;;;;;;;5053186;28;20044;-59
2023/11/15 06:52:21;;;;;;;10.20;5.05;;;;;;;;;;5051671;28;20048;-59
2023/11/15 06:54:47;;;;;;;10.68;5.40;;;;;;;;;;5052252;28;20489;-59
2023/11/15 06:57:14;;;;;;;10.60;5.22;;;;;;;;;;5052962;28;20419;-59
2023/11/15 06:59:40;;;;;;;6.05;4.35;;;;;;;;;;5050740;28;20068;-59
2023/11/15 07:02:06;;;;;;;10.93;4.90;;;;;;;;;;5052634;28;20819;-58
2023/11/15 07:04:33;;;;;;;11.48;5.10;;;;;;;;;;5053891;28;20523;-59
2023/11/15 07:06:59;;;;;;;7.60;4.63;;;;;;;;;;5053935;28;20346;-59
2023/11/15 07:09:27;;;;;;;9.23;4.60;;;;;;;;;;5051543;28;20049;-59
2023/11/15 07:11:53;;;;;;;12.07;4.85;;;;;;;;;;5032721;28;20044;-59
2023/11/15 07:14:20;;;;;;;8.18;4.60;;;;;;;;;;5049592;28;20421;-59
2023/11/15 07:16:55;;;;;;;10.57;5.05;;;;;;;;;;5046493;28;20033;-59
2023/11/15 07:19:24;;;;;;;9.82;4.75;;;;;;;;;;5051469;28;20403;-59
2023/11/15 07:21:50;;;;;;;8.23;4.57;;;;;;;;;;5049291;28;20513;-59
2023/11/15 07:24:16;;;;;;;9.57;4.22;;;;;;;;;;5051331;28;20107;-59
2023/11/15 07:26:43;;;;;;;11.18;4.60;;;;;;;;;;5052180;28;20063;-59
2023/11/15 07:29:10;;;;;;;6.70;4.53;;;;;;;;;;5053013;28;20053;-59
2023/11/15 07:31:36;;;;;;;16.38;4.40;;;;;;;;;;5050766;28;20053;-59
2023/11/15 07:34:08;;;;;;;10.07;4.45;;;;;;;;;;5052581;28;20049;-59
2023/11/15 07:36:34;;;;;;;9.23;4.32;;;;;;;;;;5048093;28;20048;-59
2023/11/15 07:39:04;;;;;;;10.63;4.65;;;;;;;;;;5050235;28;20100;-59
2023/11/15 07:41:31;;;;;;;11.55;4.60;;;;;;;;;;5052362;28;20044;-59
2023/11/15 07:43:58;;;;;;;12.25;4.78;;;;;;;;;;5051220;28;20041;-60
2023/11/15 07:46:24;;;;;;;9.55;3.95;;;;;;;;;;5051434;28;20117;-60
2023/11/15 07:48:53;;;;;;;9.85;4.13;;;;;;;;;;5051813;28;20407;-60
2023/11/15 07:51:19;;;;;;;8.50;3.88;;;;;;;;;;5050350;28;20104;-60
2023/11/15 07:53:49;;;;;;;11.15;4.72;;;;;;;;;;5051000;28;20041;-60
2023/11/15 07:56:19;;;;;;;9.95;3.72;;;;;;;;;;5052074;28;20086;-60
2023/11/15 07:58:46;;;;;;;17.83;4.07;;;;;;;;;;5051282;28;20048;-59
2023/11/15 08:01:12;;;;;;;7.60;3.80;;;;;;;;;;5048262;28;20115;-59
2023/11/15 08:03:41;;;;;;;16.33;3.92;;;;;;;;;;5052948;28;20063;-59
2023/11/15 08:06:08;;;;;;;16.02;3.80;;;;;;;;;;5051139;28;20461;-59
2023/11/15 08:08:34;;;;;;;17.58;4.43;;;;;;;;;;5047980;28;20393;-59
2023/11/15 08:11:03;;;;;;;13.32;3.97;;;;;;;;;;5050294;28;20409;-59
2023/11/15 08:13:29;;;;;;;9.82;3.78;;;;;;;;;;5051945;28;20060;-60
2023/11/15 08:15:58;;;;;;;16.63;4.68;;;;;;;;;;5051133;28;20037;-59
2023/11/15 08:18:25;;;;;;;12.68;4.00;;;;;;;;;;5052230;28;20155;-59
2023/11/15 08:20:53;;;;;;;15.98;4.43;;;;;;;;;;5049825;28;20460;-59
2023/11/15 08:23:19;;;;;;;13.13;3.83;;;;;;;;;;5050926;28;20045;-59
2023/11/15 08:25:45;;;;;;;11.95;3.78;;;;;;;;;;5052147;28;20044;-59
2023/11/15 08:28:14;;;;;;;11.18;4.22;;;;;;;;;;5051036;28;20136;-59
2023/11/15 08:30:40;;;;;;;15.13;4.55;;;;;;;;;;5050515;28;20056;-59
2023/11/15 08:33:06;;;;;;;16.95;4.07;;;;;;;;;;5050558;28;20453;-59
2023/11/15 08:35:33;;;;;;;14.43;4.40;;;;;;;;;;5050077;28;20064;-60
2023/11/15 08:37:59;;;;;;;16.02;4.47;;;;;;;;;;5048449;28;20033;-59
2023/11/15 08:40:25;;;;;;;20.95;4.65;;;;;;;;;;5050120;28;20445;-59
2023/11/15 08:42:51;;;;;;;16.42;4.47;;;;;;;;;;5050132;28;20045;-59
2023/11/15 08:45:18;;;;;;;18.63;5.30;;;;;;;;;;5051648;28;20048;-59
2023/11/15 08:47:44;;;;;;;17.58;4.95;;;;;;;;;;5050102;28;20085;-59
2023/11/15 08:50:11;;;;;;;17.17;4.38;;;;;;;;;;5050939;28;20033;-60
2023/11/15 08:52:39;;;;;;;17.73;5.40;;;;;;;;;;5051939;28;20335;-59
2023/11/15 08:55:08;;;;;;;18.77;5.15;;;;;;;;;;5049008;28;20102;-59
2023/11/15 08:57:35;;;;;;;20.00;5.75;;;;;;;;;;5050695;28;20040;-59
2023/11/15 09:00:03;;;;;;;15.00;5.15;;;;;;;;;;5050557;28;20048;-59
2023/11/15 09:02:31;;;;;;;18.60;5.28;;;;;;;;;;5045562;28;20049;-59
2023/11/15 09:04:57;;;;;;;21.75;5.47;;;;;;;;;;5050089;28;20124;-59
2023/11/15 09:07:23;;;;;;;19.30;4.95;;;;;;;;;;5046474;28;20041;-59
2023/11/15 09:09:49;;;;;;;16.20;5.20;;;;;;;;;;5050638;28;20439;-59
2023/11/15 09:12:17;;;;;;;12.25;4.78;;;;;;;;;;5044979;28;20041;-59
2023/11/15 09:14:44;;;;;;;16.98;4.88;;;;;;;;;;5050130;28;20052;-59
2023/11/15 09:17:16;;;;;;;17.60;4.95;;;;;;;;;;5048108;28;20068;-59
2023/11/15 09:19:48;;;;;;;15.10;4.88;;;;;;;;;;5050754;28;20053;-59
2023/11/15 09:22:18;;;;;;;19.92;4.45;;;;;;;;;;5050622;28;20119;-61
2023/11/15 09:24:44;;;;;;;20.67;4.85;;;;;;;;;;5050117;28;20047;-59
2023/11/15 09:27:12;;;;;;;11.98;4.47;;;;;;;;;;5048892;28;20558;-59
2023/11/15 09:29:38;;;;;;;14.80;4.47;;;;;;;;;;5046357;28;20060;-59
2023/11/15 09:32:05;;;;;;;18.77;4.30;;;;;;;;;;5032257;28;20511;-59
2023/11/15 09:34:31;;;;;;;11.52;3.83;;;;;;;;;;5049154;28;20099;-59
2023/11/15 09:36:57;;;;;;;13.77;4.05;;;;;;;;;;5049036;28;20041;-60
2023/11/15 09:39:24;;;;;;;10.10;3.55;;;;;;;;;;5050518;28;20128;-59
2023/11/15 09:41:54;;;;;;;9.85;2.90;;;;;;;;;;5050760;28;20148;-60
2023/11/15 09:44:23;;;;;;;7.78;2.55;;;;;;;;;;5049227;28;20186;-59
2023/11/15 09:46:58;;;;;;;8.15;2.28;;;;;;;;;;5046879;28;20055;-59
2023/11/15 09:49:25;;;;;;;7.43;2.17;;;;;;;;;;5050662;28;20417;-60
2023/11/15 09:51:52;;;;;;;10.98;2.80;;;;;;;;;;5049770;28;20048;-59
2023/11/15 09:54:22;;;;;;;11.02;2.40;;;;;;;;;;5049277;28;20049;-59
2023/11/15 09:56:49;;;;;;;9.07;2.22;;;;;;;;;;5049661;28;20049;-59
2023/11/15 09:59:17;;;;;;;6.35;2.33;;;;;;;;;;5048585;28;20810;-59
2023/11/15 10:01:45;;;;;;;4.85;1.80;;;;;;;;;;5036157;28;20100;-61
2023/11/15 10:04:29;;;;;;;11.52;2.63;;;;;;;;;;5042512;28;20053;-60
2023/11/15 10:06:55;;;;;;;7.70;1.92;;;;;;;;;;5028960;28;20056;-60
2023/11/15 10:09:42;;;;;;;7.35;1.80;;;;;;;;;;5045546;28;20512;-60
2023/11/15 10:12:10;;;;;;;5.97;1.70;;;;;;;;;;5042738;28;20715;-60
2023/11/15 10:14:50;;;;;;;5.20;1.50;;;;;;;;;;5043128;28;20389;-61
2023/11/15 10:17:17;;;;;;;8.15;1.98;;;;;;;;;;5044357;28;20055;-60
2023/11/15 10:19:44;;;;;;;6.65;1.92;;;;;;;;;;5043672;28;20172;-61
2023/11/15 10:22:14;;;;;;;8.73;2.30;;;;;;;;;;5046378;28;20916;-61
2023/11/15 10:24:40;;;;;;;8.27;2.45;;;;;;;;;;5048276;28;20037;-60
2023/11/15 10:27:11;;;;;;;6.20;1.98;;;;;;;;;;5048396;28;20045;-60
2023/11/15 10:29:38;;;;;;;5.28;1.40;;;;;;;;;;5043998;28;20064;-60
2023/11/15 10:32:05;;;;;;;8.45;1.83;;;;;;;;;;5047331;28;20589;-60
2023/11/15 10:34:35;;;;;;;6.63;1.65;;;;;;;;;;5050165;28;20040;-60
2023/11/15 10:37:10;;;;;;;8.20;1.88;;;;;;;;;;5049517;28;20113;-60
2023/11/15 10:39:47;;;;;;;9.55;1.75;;;;;;;;;;5051599;28;20520;-60
2023/11/15 10:42:15;;;;;;;7.75;2.28;;;;;;;;;;5052968;28;20531;-60
2023/11/15 10:44:47;;;;;;;10.77;2.08;;;;;;;;;;5030499;28;20186;-60
2023/11/15 10:47:19;;;;;;;9.63;2.08;;;;;;;;;;5052936;28;20489;-60
2023/11/15 10:49:49;;;;;;;5.88;1.92;;;;;;;;;;5052278;28;20068;-60
2023/11/15 10:52:15;;;;;;;11.93;1.75;;;;;;;;;;5050848;28;20045;-60
2023/11/15 10:54:42;;;;;;;9.15;1.75;;;;;;;;;;5047133;28;20492;-60
2023/11/15 10:57:10;;;;;;;6.65;1.30;;;;;;;;;;5049102;28;20041;-60
2023/11/15 10:59:40;;;;;;;4.68;1.55;;;;;;;;;;5042884;28;20037;-60
2023/11/15 11:02:09;;;;;;;6.57;1.92;;;;;;;;;;5042638;28;20040;-61
2023/11/15 11:04:36;;;;;;;5.35;1.75;;;;;;;;;;5045243;28;20064;-61
2023/11/15 11:07:21;;;;;;;12.30;2.58;;;;;;;;;;5040376;28;20045;-60
2023/11/15 11:10:04;;;;;;;15.27;2.28;;;;;;;;;;5043039;28;20044;-61
2023/11/15 11:12:31;;;;;;;13.15;2.58;;;;;;;;;;5025428;28;20086;-60
2023/11/15 11:15:16;;;;;;;14.27;2.78;;;;;;;;;;5047386;28;20115;-60
2023/11/15 11:17:45;;;;;;;16.73;2.78;;;;;;;;;;5045266;28;20080;-61
2023/11/15 11:20:27;;;;;;;12.38;2.20;;;;;;;;;;5049402;28;20068;-61
2023/11/15 11:23:17;;;;;;;9.38;2.50;;;;;;;;;;5042233;28;20045;-60
2023/11/15 11:25:46;;;;;;;15.10;3.30;;;;;;;;;;5010213;28;20398;-61
2023/11/15 11:28:14;;;;;;;27.60;4.00;;;;;;;;;;5052083;28;20060;-61
2023/11/15 11:30:41;;;;;;;12.63;3.30;;;;;;;;;;5049238;28;20104;-61
2023/11/15 11:33:19;;;;;;;20.40;4.40;;;;;;;;;;5050155;28;20511;-60
2023/11/15 11:35:46;;;;;;;27.05;4.97;;;;;;;;;;5050815;28;20037;-61
2023/11/15 11:38:32;;;;;;;29.85;5.15;;;;;;;;;;5049978;28;20055;-60
2023/11/15 11:41:01;;;;;;;29.90;4.60;;;;;;;;;;5025368;28;20137;-61
2023/11/15 11:43:30;;;;;;;24.08;3.72;;;;;;;;;;5032934;28;20122;-61
2023/11/15 11:45:57;;;;;;;18.65;4.05;;;;;;;;;;5053252;28;20138;-60
2023/11/15 11:48:27;;;;;;;24.23;4.35;;;;;;;;;;5053039;28;20096;-61
2023/11/15 11:50:59;;;;;;;25.35;4.80;;;;;;;;;;5049463;28;20084;-60
2023/11/15 11:53:25;;;;;;;26.60;4.10;;;;;;;;;;5033694;28;20056;-61
2023/11/15 11:55:54;;;;;;;24.23;3.33;;;;;;;;;;5035100;28;20041;-61
2023/11/15 11:58:21;;;;;;;26.25;4.07;;;;;;;;;;5051859;28;20059;-60
2023/11/15 12:00:48;;;;;;;27.45;4.38;;;;;;;;;;5050825;28;20082;-61
2023/11/15 12:03:15;;;;;;;24.70;3.50;;;;;;;;;;5051197;28;20049;-61
2023/11/15 12:05:43;;;;;;;20.95;3.53;;;;;;;;;;5051942;28;20115;-61
2023/11/15 12:08:09;;;;;;;15.13;3.40;;;;;;;;;;5050857;28;20045;-61
2023/11/15 12:10:40;;;;;;;16.42;3.22;;;;;;;;;;5056604;28;20119;-61
2023/11/15 12:13:10;;;;;;;27.02;4.68;;;;;;;;;;5043145;28;20159;-60
2023/11/15 12:15:37;;;;;;;19.65;3.63;;;;;;;;;;5048704;28;20772;-61
2023/11/15 12:18:04;;;;;;;17.60;2.83;;;;;;;;;;5050439;28;20552;-61
2023/11/15 12:20:30;;;;;;;23.75;4.22;;;;;;;;;;5051350;28;20045;-61
2023/11/15 12:23:09;;;;;;;23.92;2.97;;;;;;;;;;5050296;28;20425;-60
2023/11/15 12:25:49;;;;;;;17.88;3.05;;;;;;;;;;5049365;28;20048;-62
2023/11/15 12:28:21;;;;;;;18.83;2.83;;;;;;;;;;5032139;28;20501;-60
2023/11/15 12:30:48;;;;;;;21.13;4.13;;;;;;;;;;5043604;28;20060;-61
2023/11/15 12:33:14;;;;;;;13.55;3.05;;;;;;;;;;5047306;28;20433;-60
2023/11/15 12:35:41;;;;;;;16.92;3.17;;;;;;;;;;5046663;28;20147;-59
2023/11/15 12:38:12;;;;;;;15.27;2.60;;;;;;;;;;5052272;28;20090;-59
2023/11/15 12:40:39;;;;;;;20.27;3.83;;;;;;;;;;5051941;28;20056;-59
2023/11/15 12:43:21;;;;;;;25.70;3.42;;;;;;;;;;5052110;28;20378;-59
2023/11/15 12:45:56;;;;;;;15.55;3.00;;;;;;;;;;5051421;28;20119;-59
2023/11/15 12:48:22;;;;;;;18.77;3.30;;;;;;;;;;5050723;28;20041;-59
2023/11/15 12:50:49;;;;;;;17.92;2.72;;;;;;;;;;5051803;28;20504;-59
2023/11/15 12:53:17;;;;;;;13.45;2.33;;;;;;;;;;5050964;28;20037;-59
2023/11/15 12:55:50;;;;;;;20.75;3.47;;;;;;;;;;5050799;28;20126;-59
2023/11/15 12:58:17;;;;;;;13.90;2.70;;;;;;;;;;5051900;28;20485;-59
2023/11/15 13:00:59;;;;;;;12.75;2.60;;;;;;;;;;5051187;28;20041;-59
2023/11/15 13:03:30;;;;;;;15.00;2.47;;;;;;;;;;5050755;28;20045;-59
2023/11/15 13:06:10;;;;;;;12.98;2.70;;;;;;;;;;5051621;28;20041;-59
2023/11/15 13:08:37;;;;;;;18.35;3.38;;;;;;;;;;5050887;28;20083;-59
2023/11/15 13:11:05;;;;;;;20.02;3.30;;;;;;;;;;5051443;28;20064;-59
2023/11/15 13:13:32;;;;;;;13.45;2.90;;;;;;;;;;5048833;28;20045;-59
2023/11/15 13:15:58;;;;;;;18.50;2.88;;;;;;;;;;5049818;28;20094;-59
2023/11/15 13:18:25;;;;;;;20.83;3.17;;;;;;;;;;5040058;28;20069;-59
2023/11/15 13:20:51;;;;;;;17.27;2.85;;;;;;;;;;5051311;28;20048;-59
2023/11/15 13:23:21;;;;;;;16.77;3.22;;;;;;;;;;5049900;28;20044;-60
2023/11/15 13:25:47;;;;;;;16.35;4.07;;;;;;;;;;5051848;28;20142;-59
2023/11/15 13:28:13;;;;;;;20.83;3.25;;;;;;;;;;5050331;28;20056;-59
2023/11/15 13:30:40;;;;;;;12.20;2.90;;;;;;;;;;5050320;28;20056;-59
2023/11/15 13:33:06;;;;;;;15.70;2.90;;;;;;;;;;5049760;28;20055;-59
2023/11/15 13:35:32;;;;;;;22.17;3.85;;;;;;;;;;5048585;28;20353;-59
2023/11/15 13:38:00;;;;;;;20.65;2.70;;;;;;;;;;5048885;28;20071;-59
2023/11/15 13:40:26;;;;;;;20.50;2.97;;;;;;;;;;5049734;28;20113;-59
2023/11/15 13:42:53;;;;;;;22.90;4.88;;;;;;;;;;5049549;28;20064;-59
2023/11/15 13:45:20;;;;;;;16.83;2.97;;;;;;;;;;5047533;28;20044;-59
2023/11/15 13:47:46;;;;;;;18.65;3.50;;;;;;;;;;5042115;28;20083;-59
2023/11/15 13:50:13;;;;;;;15.88;3.33;;;;;;;;;;5048951;28;20152;-59
2023/11/15 13:52:39;;;;;;;20.13;3.95;;;;;;;;;;5050876;28;20093;-59
2023/11/15 13:55:07;;;;;;;18.42;2.95;;;;;;;;;;5050835;28;20045;-59
2023/11/15 13:57:33;;;;;;;22.13;3.40;;;;;;;;;;5050071;28;20045;-59
2023/11/15 14:00:00;;;;;;;13.68;2.78;;;;;;;;;;5049391;28;20393;-59
2023/11/15 14:02:26;;;;;;;17.77;2.92;;;;;;;;;;5050888;28;20045;-59
2023/11/15 14:04:53;;;;;;;15.38;3.28;;;;;;;;;;5050042;28;20048;-59
2023/11/15 14:07:20;;;;;;;17.58;3.15;;;;;;;;;;5050790;28;20171;-60
2023/11/15 14:09:46;;;;;;;22.38;3.60;;;;;;;;;;5047405;28;20041;-59
2023/11/15 14:12:13;;;;;;;17.92;2.85;;;;;;;;;;5044706;28;20095;-59
2023/11/15 14:14:39;;;;;;;18.95;3.03;;;;;;;;;;5050409;28;20045;-60
2023/11/15 14:17:10;;;;;;;17.33;2.58;;;;;;;;;;5047277;28;20481;-59
2023/11/15 14:19:40;;;;;;;13.93;2.78;;;;;;;;;;5047231;28;20111;-59
2023/11/15 14:22:06;;;;;;;23.42;3.33;;;;;;;;;;5050675;28;20123;-59
2023/11/15 14:24:33;;;;;;;19.85;2.70;;;;;;;;;;5050563;28;20059;-59
2023/11/15 14:27:00;;;;;;;22.48;4.65;;;;;;;;;;5049972;28;20053;-59
2023/11/15 14:29:27;;;;;;;13.85;3.10;;;;;;;;;;5049358;28;20516;-59
2023/11/15 14:31:53;;;;;;;20.08;2.47;;;;;;;;;;5049310;28;20041;-59
2023/11/15 14:34:20;;;;;;;22.50;3.03;;;;;;;;;;5050126;28;20128;-59
2023/11/15 14:36:46;;;;;;;22.08;3.33;;;;;;;;;;5050522;28;20037;-59
2023/11/15 14:39:13;;;;;;;18.77;2.78;;;;;;;;;;5049888;28;20453;-59